Archival Weather

Chicago O'Hare International

Chicago, Illinois (KORD)

Report from: Thursday, March 21, 2024 9:51 PM CDT
Current time: Tuesday, May 21, 2024 11:29 AM CDT

Current weather – Weather history – Daily summaries
Weather forecast

Temperature2.2°C (36.0°F)
Wind chill-1.3°C (29.6°F)
Dew point-6.1°C (21.0°F)
Winds 7 kts (3.6 m/s, 8.1 mph) East-Southeast (110°)
Visibility10 mi. (16.1 km)
Clouds Scattered clouds 7,000 ft. (2,134 m)
Ceiling: Broken clouds 14,000 ft. (4,267 m)
Broken clouds 17,000 ft. (5,182 m)
Altimeter30.20 in.Hg (1023 mB)
Relative humidity54 %
Density altitude-1,835 ft. (-559 m)
Sea-level pressure102.3 kPa (1023 mB, 30.22 in.Hg)
Remarks System requires maintenance
Automated weather observing station with precipitation discriminator
Pressure falling more quickly
Flight conditions Visual Meteorological Conditions
Raw dataKORD 220251Z 11007KT 10SM SCT070 BKN140 BKN170 02/M06 A3020 RMK AO2 SLP233 T00221061 58007 $
An error has occurred. This application may no longer respond until reloaded. Reload 🗙